Time;durP1;ratioP1;P1;durP2;ratioP2;P2;SDS_P1;SDS_P2;PMS_P1;PMS_P2;Temp;Humidity;BMP_temperature;BMP_pressure;BME280_temperature;BME280_humidity;BME280_pressure;Samples;Min_cycle;Max_cycle;Signal;HPM_P1;HPM_P2
2022/04/20 00:01:00;;;;;;;8.33;3.93;;;8.80;99.90;;;;;;5134087;27;20273;-73
2022/04/20 00:03:26;;;;;;;8.03;4.30;;;8.70;99.90;;;;;;5134151;27;20039;-73
2022/04/20 00:05:52;;;;;;;8.23;3.80;;;8.70;99.90;;;;;;5132829;28;20131;-73
2022/04/20 00:08:18;;;;;;;7.80;4.00;;;8.70;99.90;;;;;;5134081;27;20122;-73
2022/04/20 00:10:44;;;;;;;7.83;3.93;;;8.60;99.90;;;;;;5133818;27;20047;-73
2022/04/20 00:13:10;;;;;;;7.90;3.80;;;8.60;99.90;;;;;;5133017;28;20462;-73
2022/04/20 00:15:35;;;;;;;6.40;3.58;;;8.60;99.90;;;;;;5133754;27;20043;-73
2022/04/20 00:18:01;;;;;;;7.60;3.43;;;8.60;99.90;;;;;;5133887;27;20126;-73
2022/04/20 00:20:27;;;;;;;7.37;3.30;;;8.60;99.90;;;;;;5133934;27;20035;-73
2022/04/20 00:22:52;;;;;;;8.07;3.73;;;8.60;99.90;;;;;;5133951;28;20054;-73
2022/04/20 00:25:18;;;;;;;8.97;3.70;;;8.60;99.90;;;;;;5133972;27;20043;-73
2022/04/20 00:27:44;;;;;;;8.07;3.87;;;8.60;99.90;;;;;;5133599;28;20058;-73
2022/04/20 00:30:11;;;;;;;9.77;3.97;;;8.60;99.90;;;;;;5134278;28;20452;-74
2022/04/20 00:32:36;;;;;;;6.38;3.35;;;8.50;99.90;;;;;;5133356;27;20491;-73
2022/04/20 00:35:02;;;;;;;6.07;3.67;;;8.50;99.90;;;;;;5133871;27;20054;-73
2022/04/20 00:37:28;;;;;;;8.67;4.33;;;8.40;99.90;;;;;;5133260;27;20063;-73
2022/04/20 00:39:54;;;;;;;7.03;3.80;;;8.40;99.90;;;;;;5132292;28;20057;-73
2022/04/20 00:42:22;;;;;;;6.90;3.50;;;8.40;99.90;;;;;;5133933;28;20047;-73
2022/04/20 00:44:49;;;;;;;5.55;3.30;;;8.40;99.90;;;;;;5133105;28;20487;-73
2022/04/20 00:47:17;;;;;;;10.13;4.18;;;8.40;99.90;;;;;;5134292;27;20132;-73
2022/04/20 00:49:45;;;;;;;6.85;3.78;;;8.40;99.90;;;;;;5137405;27;20043;-73
2022/04/20 00:52:10;;;;;;;7.68;4.55;;;8.30;99.90;;;;;;5119489;27;20586;-73
2022/04/20 00:54:36;;;;;;;9.33;4.60;;;8.30;99.90;;;;;;5137592;27;20130;-74
2022/04/20 00:57:02;;;;;;;7.83;4.30;;;8.20;99.90;;;;;;5137488;27;20054;-73
2022/04/20 00:59:29;;;;;;;6.87;4.20;;;8.20;99.90;;;;;;5137438;27;20039;-73
2022/04/20 01:01:55;;;;;;;7.90;3.92;;;8.10;99.90;;;;;;5137141;27;20618;-73
2022/04/20 01:04:21;;;;;;;6.88;3.75;;;8.20;99.90;;;;;;5136963;27;20487;-73
2022/04/20 01:06:49;;;;;;;6.77;3.77;;;8.20;99.90;;;;;;5137030;27;20043;-73
2022/04/20 01:09:15;;;;;;;7.10;4.18;;;8.10;99.90;;;;;;5136074;27;20129;-73
2022/04/20 01:11:42;;;;;;;7.43;3.90;;;8.10;99.90;;;;;;5137111;27;20508;-73
2022/04/20 01:14:09;;;;;;;6.72;3.67;;;8.00;99.90;;;;;;5137109;27;20039;-73
2022/04/20 01:16:35;;;;;;;7.30;3.60;;;8.00;99.90;;;;;;5137056;27;20042;-74
2022/04/20 01:19:01;;;;;;;5.93;3.97;;;8.00;99.90;;;;;;5136709;27;20040;-74
2022/04/20 01:21:27;;;;;;;6.72;3.60;;;8.00;99.90;;;;;;5136946;27;20130;-74
2022/04/20 01:23:53;;;;;;;6.63;3.70;;;8.00;99.90;;;;;;5136728;27;20054;-73
2022/04/20 01:26:19;;;;;;;6.65;4.13;;;8.00;99.90;;;;;;5136847;27;20043;-74
2022/04/20 01:28:46;;;;;;;8.27;4.13;;;7.90;99.90;;;;;;5136759;27;20095;-73
2022/04/20 01:31:14;;;;;;;8.65;3.83;;;7.90;99.90;;;;;;5135719;27;20281;-74
2022/04/20 01:33:41;;;;;;;7.65;4.20;;;7.80;99.90;;;;;;5136794;27;20122;-74
2022/04/20 01:36:07;;;;;;;9.57;4.32;;;7.80;99.90;;;;;;5135522;27;20433;-73
2022/04/20 01:38:33;;;;;;;7.67;4.50;;;7.80;99.90;;;;;;5136229;27;20047;-74
2022/04/20 01:40:58;;;;;;;6.50;3.83;;;7.80;99.90;;;;;;5135072;27;20046;-73
2022/04/20 01:43:24;;;;;;;7.10;4.07;;;7.70;99.90;;;;;;5134660;27;20162;-73
2022/04/20 01:45:50;;;;;;;8.18;3.80;;;7.70;99.90;;;;;;5135442;27;20078;-73
2022/04/20 01:48:16;;;;;;;9.70;4.10;;;7.70;99.90;;;;;;5136764;27;20081;-74
2022/04/20 01:53:25;;;;;;;6.93;3.72;;;7.70;99.90;;;;;;5135587;27;20051;-74
2022/04/20 01:55:51;;;;;;;7.00;4.10;;;7.70;99.90;;;;;;5136150;27;20051;-73
2022/04/20 01:58:17;;;;;;;6.67;3.53;;;7.70;99.90;;;;;;5136259;27;20152;-74
2022/04/20 02:00:43;;;;;;;6.00;3.40;;;7.70;99.90;;;;;;5135423;27;20078;-74
2022/04/20 02:03:09;;;;;;;7.93;4.10;;;7.70;99.90;;;;;;5135661;27;20081;-73
2022/04/20 02:05:34;;;;;;;7.27;4.23;;;7.70;99.90;;;;;;5135079;27;20081;-74
2022/04/20 02:08:00;;;;;;;9.73;4.27;;;7.70;99.90;;;;;;5135563;27;20051;-73
2022/04/20 02:10:25;;;;;;;7.80;3.67;;;7.70;99.90;;;;;;5134911;27;20058;-74
2022/04/20 02:12:51;;;;;;;9.27;4.07;;;7.60;99.90;;;;;;5135782;27;20505;-73
2022/04/20 02:15:17;;;;;;;7.73;3.93;;;7.70;99.90;;;;;;5135994;27;20047;-73
2022/04/20 02:17:42;;;;;;;9.03;3.70;;;7.60;99.90;;;;;;5135534;27;20047;-74
2022/04/20 02:20:09;;;;;;;9.30;3.87;;;7.60;99.90;;;;;;5135640;27;20054;-74
2022/04/20 02:22:34;;;;;;;8.43;4.18;;;7.60;99.90;;;;;;5134737;27;20051;-73
2022/04/20 02:25:00;;;;;;;8.53;4.10;;;7.60;99.90;;;;;;5135507;27;20047;-74
2022/04/20 02:27:26;;;;;;;7.40;3.53;;;7.60;99.90;;;;;;5135772;27;20087;-74
2022/04/20 02:29:53;;;;;;;8.80;3.92;;;7.60;99.90;;;;;;5134548;27;20130;-73
2022/04/20 02:32:18;;;;;;;7.05;3.83;;;7.60;99.90;;;;;;5135636;27;20043;-74
2022/04/20 02:34:44;;;;;;;8.43;4.00;;;7.60;99.90;;;;;;5117385;27;20054;-74
2022/04/20 02:37:10;;;;;;;8.97;5.00;;;7.60;99.90;;;;;;5135602;27;20051;-74
2022/04/20 02:39:37;;;;;;;7.47;3.63;;;7.60;99.90;;;;;;5135632;27;20336;-74
2022/04/20 02:42:05;;;;;;;6.93;3.63;;;7.60;99.90;;;;;;5135213;27;20398;-74
2022/04/20 02:44:31;;;;;;;6.55;3.65;;;7.50;99.90;;;;;;5135310;27;20043;-74
2022/04/20 02:46:57;;;;;;;8.13;3.80;;;7.60;99.90;;;;;;5135528;27;20053;-73
2022/04/20 02:49:23;;;;;;;8.50;4.32;;;7.50;99.90;;;;;;5134055;27;20035;-74
2022/04/20 02:51:49;;;;;;;7.27;4.00;;;7.50;99.90;;;;;;5135322;27;20042;-74
2022/04/20 02:54:15;;;;;;;7.03;4.27;;;7.50;99.90;;;;;;5134978;27;20087;-74
2022/04/20 02:56:40;;;;;;;7.60;4.17;;;7.50;99.90;;;;;;5135109;27;20042;-74
2022/04/20 02:59:06;;;;;;;8.03;4.57;;;7.40;99.90;;;;;;5134666;27;20412;-74
2022/04/20 03:01:32;;;;;;;7.10;3.67;;;7.50;99.90;;;;;;5135254;27;20062;-74
2022/04/20 03:04:01;;;;;;;7.43;4.00;;;7.40;99.90;;;;;;5134697;27;20308;-74
2022/04/20 03:06:27;;;;;;;8.80;4.30;;;7.40;99.90;;;;;;5134866;27;20085;-74
2022/04/20 03:08:53;;;;;;;8.00;3.80;;;7.40;99.90;;;;;;5133717;27;20078;-73
2022/04/20 03:11:19;;;;;;;8.20;4.45;;;7.40;99.90;;;;;;5135103;27;20047;-74
2022/04/20 03:13:46;;;;;;;8.18;4.40;;;7.40;99.90;;;;;;5134508;27;20503;-74
2022/04/20 03:16:12;;;;;;;8.43;4.00;;;7.40;99.90;;;;;;5134498;27;20054;-74
2022/04/20 03:18:37;;;;;;;8.27;4.13;;;7.40;99.90;;;;;;5134667;27;20039;-74
2022/04/20 03:21:03;;;;;;;7.57;4.03;;;7.40;99.90;;;;;;5116451;27;20463;-74
2022/04/20 03:23:29;;;;;;;9.30;3.97;;;7.30;99.90;;;;;;5134710;27;20047;-74
2022/04/20 03:25:55;;;;;;;9.40;4.18;;;7.30;99.90;;;;;;5134426;27;20070;-73
2022/04/20 03:28:21;;;;;;;10.60;4.20;;;7.30;99.90;;;;;;5134523;27;20479;-74
2022/04/20 03:30:47;;;;;;;7.77;4.43;;;7.30;99.90;;;;;;5134515;27;20051;-74
2022/04/20 03:33:13;;;;;;;7.82;4.75;;;7.30;99.90;;;;;;5134304;27;20043;-73
2022/04/20 03:35:39;;;;;;;8.80;4.33;;;7.30;99.90;;;;;;5134285;27;20061;-74
2022/04/20 03:38:06;;;;;;;6.75;4.38;;;7.20;99.90;;;;;;5134015;27;20104;-73
2022/04/20 03:40:32;;;;;;;8.05;4.72;;;7.10;99.90;;;;;;5133089;27;20065;-73
2022/04/20 03:42:58;;;;;;;9.07;5.70;;;7.10;99.90;;;;;;5134171;27;20051;-73
2022/04/20 03:45:24;;;;;;;9.10;5.03;;;7.10;99.90;;;;;;5134350;27;20073;-74
2022/04/20 03:47:49;;;;;;;10.57;5.37;;;7.10;99.90;;;;;;5134230;27;20097;-74
2022/04/20 03:50:15;;;;;;;9.67;5.17;;;7.00;99.90;;;;;;5134051;27;20086;-73
2022/04/20 03:52:41;;;;;;;11.53;5.47;;;7.00;99.90;;;;;;5133289;27;20447;-74
2022/04/20 03:55:07;;;;;;;7.70;5.10;;;6.90;99.90;;;;;;5133961;27;20070;-73
2022/04/20 03:57:33;;;;;;;6.40;4.28;;;6.90;99.90;;;;;;5134179;27;20130;-74
2022/04/20 03:59:59;;;;;;;6.83;4.10;;;6.90;99.90;;;;;;5133872;27;20173;-74
2022/04/20 04:02:24;;;;;;;9.83;5.13;;;6.80;99.90;;;;;;5134067;27;20039;-73
2022/04/20 04:04:50;;;;;;;8.17;4.53;;;6.70;99.90;;;;;;5132820;28;20039;-74
2022/04/20 04:07:16;;;;;;;9.57;4.87;;;6.70;99.90;;;;;;5132655;28;20093;-74
2022/04/20 04:09:42;;;;;;;8.17;5.00;;;6.70;99.90;;;;;;5134055;27;20471;-74
2022/04/20 04:12:09;;;;;;;7.53;4.93;;;6.70;99.90;;;;;;5133819;27;20273;-74
2022/04/20 04:14:39;;;;;;;6.88;4.75;;;6.70;99.90;;;;;;5133902;27;20445;-74
2022/04/20 04:17:05;;;;;;;9.40;4.93;;;6.70;99.90;;;;;;5133731;27;20047;-74
2022/04/20 04:19:31;;;;;;;8.32;4.35;;;6.70;99.90;;;;;;5132765;28;20047;-74
2022/04/20 04:21:57;;;;;;;7.33;4.00;;;6.60;99.90;;;;;;5133977;27;20104;-74
2022/04/20 04:24:35;;;;;;;8.27;4.75;;;6.60;99.90;;;;;;5137901;27;20050;-74
2022/04/20 04:27:08;;;;;;;9.82;5.07;;;6.60;99.90;;;;;;5136793;27;20047;-74
2022/04/20 04:29:34;;;;;;;8.82;5.50;;;6.50;99.90;;;;;;5138022;27;20042;-74
2022/04/20 04:32:00;;;;;;;8.93;5.13;;;6.50;99.90;;;;;;5137991;27;20126;-74
2022/04/20 04:34:26;;;;;;;7.13;5.00;;;6.50;99.90;;;;;;5137499;27;20760;-74
2022/04/20 04:36:53;;;;;;;8.90;5.07;;;6.50;99.90;;;;;;5137822;27;20051;-74
2022/04/20 04:39:21;;;;;;;10.02;4.95;;;6.40;99.90;;;;;;5137813;27;20301;-74
2022/04/20 04:41:50;;;;;;;8.68;4.70;;;6.50;99.90;;;;;;5137782;27;20126;-74
2022/04/20 04:44:19;;;;;;;7.32;4.63;;;6.40;99.90;;;;;;5137478;27;20039;-75
2022/04/20 04:49:31;;;;;;;9.27;5.20;;;6.50;99.90;;;;;;5137650;27;20104;-75
2022/04/20 04:51:58;;;;;;;8.90;5.10;;;6.40;99.90;;;;;;5137748;27;20047;-74
2022/04/20 04:54:24;;;;;;;8.80;5.05;;;6.40;99.90;;;;;;5136967;27;20457;-75
2022/04/20 04:56:51;;;;;;;8.95;5.60;;;6.40;99.90;;;;;;5137494;27;20111;-74
2022/04/20 04:59:18;;;;;;;7.05;5.18;;;6.40;99.90;;;;;;5137051;27;20067;-74
2022/04/20 05:01:44;;;;;;;9.20;4.65;;;6.50;99.90;;;;;;5137310;27;20043;-74
2022/04/20 05:04:11;;;;;;;9.13;5.20;;;6.50;99.90;;;;;;5137092;27;20043;-74
2022/04/20 05:06:37;;;;;;;11.00;5.30;;;6.50;99.90;;;;;;5137343;27;20277;-74
2022/04/20 05:09:03;;;;;;;7.65;4.03;;;6.50;99.90;;;;;;5118966;27;20122;-74
2022/04/20 05:11:29;;;;;;;8.55;4.38;;;6.60;99.90;;;;;;5137155;27;20081;-75
2022/04/20 05:13:55;;;;;;;8.57;4.63;;;6.60;99.90;;;;;;5137054;27;20076;-74
2022/04/20 05:16:21;;;;;;;7.93;4.83;;;6.60;99.90;;;;;;5136711;27;20133;-74
2022/04/20 05:18:47;;;;;;;9.13;5.10;;;6.60;99.90;;;;;;5137291;27;20127;-74
2022/04/20 05:21:13;;;;;;;9.40;4.83;;;6.70;99.90;;;;;;5136680;27;20503;-74
2022/04/20 05:23:38;;;;;;;9.53;4.93;;;6.70;99.90;;;;;;5137020;27;20039;-74
2022/04/20 05:26:04;;;;;;;11.10;4.70;;;6.80;99.90;;;;;;5135703;27;20096;-74
2022/04/20 05:28:30;;;;;;;9.13;4.67;;;6.80;99.90;;;;;;5135521;27;20494;-74
2022/04/20 05:30:55;;;;;;;8.57;5.00;;;6.80;99.90;;;;;;5136489;27;20092;-74
2022/04/20 05:33:21;;;;;;;9.83;4.90;;;6.90;99.90;;;;;;5136345;27;20057;-74
2022/04/20 05:35:47;;;;;;;9.73;5.33;;;7.00;99.90;;;;;;5135979;27;20043;-74
2022/04/20 05:43:41;;;;;;;7.82;4.13;;;7.20;99.90;;;;;;5136560;27;20081;-74
2022/04/20 05:46:07;;;;;;;7.82;4.68;;;7.20;99.90;;;;;;5135924;27;20498;-74
2022/04/20 05:48:33;;;;;;;8.20;4.90;;;7.30;99.90;;;;;;5136504;27;20035;-74
2022/04/20 05:51:00;;;;;;;7.67;4.60;;;7.30;99.90;;;;;;5136731;27;20047;-74
2022/04/20 05:53:25;;;;;;;10.40;4.28;;;7.40;99.90;;;;;;5136200;27;20057;-74
2022/04/20 05:55:51;;;;;;;8.97;4.57;;;7.60;99.90;;;;;;5136395;27;20479;-74
2022/04/20 05:58:17;;;;;;;17.10;4.43;;;8.10;99.90;;;;;;5135997;27;20131;-74
2022/04/20 06:00:43;;;;;;;8.73;5.03;;;8.90;99.90;;;;;;5135365;27;20051;-74
2022/04/20 06:03:08;;;;;;;7.33;4.17;;;10.20;99.90;;;;;;5135084;27;20058;-74
2022/04/20 06:05:34;;;;;;;7.87;4.10;;;11.40;99.90;;;;;;5136121;27;20448;-74
2022/04/20 06:08:00;;;;;;;11.23;4.10;;;12.20;96.50;;;;;;5136104;27;20054;-74
2022/04/20 06:10:25;;;;;;;8.30;3.97;;;12.80;95.00;;;;;;5117801;27;20042;-75
2022/04/20 06:12:51;;;;;;;13.27;4.27;;;13.70;86.20;;;;;;5135982;27;20054;-75
2022/04/20 06:15:17;;;;;;;6.80;4.07;;;13.90;74.70;;;;;;5135745;27;20051;-74
2022/04/20 06:17:43;;;;;;;8.10;4.00;;;14.50;71.60;;;;;;5135940;27;20047;-74
2022/04/20 06:20:09;;;;;;;7.97;4.23;;;14.70;68.90;;;;;;5135775;27;20408;-74
2022/04/20 06:22:35;;;;;;;10.10;4.07;;;15.10;64.30;;;;;;5135964;27;20276;-74
2022/04/20 06:25:02;;;;;;;7.80;3.57;;;15.40;64.50;;;;;;5117708;27;20598;-74
2022/04/20 06:27:31;;;;;;;8.80;4.30;;;16.10;83.60;;;;;;5135560;27;20433;-72
2022/04/20 06:29:58;;;;;;;6.63;3.73;;;16.70;79.00;;;;;;5135602;27;20318;-72
2022/04/20 06:32:24;;;;;;;6.87;3.90;;;17.00;57.70;;;;;;5135358;27;20272;-72
2022/04/20 06:34:51;;;;;;;6.77;3.93;;;17.20;54.60;;;;;;5135777;27;20272;-72
2022/04/20 06:37:18;;;;;;;6.67;3.60;;;17.20;52.80;;;;;;5135326;27;20355;-72
2022/04/20 06:39:45;;;;;;;9.20;3.97;;;17.40;53.00;;;;;;5135249;27;20308;-72
2022/04/20 06:42:11;;;;;;;5.90;3.27;;;17.70;51.80;;;;;;5134501;27;20297;-73
2022/04/20 06:44:37;;;;;;;8.17;3.40;;;17.30;51.00;;;;;;5134029;27;20311;-72
2022/04/20 06:47:03;;;;;;;6.10;3.30;;;17.70;51.00;;;;;;5135288;27;20402;-72
2022/04/20 06:49:28;;;;;;;6.00;3.43;;;17.80;50.10;;;;;;5133865;27;20043;-72
2022/04/20 07:00:08;;;;;;;6.70;3.30;;;19.00;47.40;;;;;;5135150;27;20047;-73
2022/04/20 07:02:35;;;;;;;6.37;3.57;;;19.40;45.90;;;;;;5134871;27;20279;-72
2022/04/20 07:05:01;;;;;;;6.53;3.40;;;19.40;45.20;;;;;;5134250;27;20095;-72
2022/04/20 07:07:27;;;;;;;7.53;3.50;;;19.80;45.30;;;;;;5134750;27;20126;-72
2022/04/20 07:09:53;;;;;;;10.20;4.53;;;20.10;44.00;;;;;;5135182;27;20051;-72
2022/04/20 07:12:19;;;;;;;6.43;3.50;;;20.20;43.30;;;;;;5134661;27;20536;-72
2022/04/20 07:14:44;;;;;;;7.57;3.40;;;20.20;42.90;;;;;;5134824;27;20506;-72
2022/04/20 07:17:10;;;;;;;5.80;3.20;;;20.00;42.80;;;;;;5134770;27;20050;-72
2022/04/20 07:19:36;;;;;;;8.17;4.07;;;20.20;43.40;;;;;;5133396;27;20547;-73
2022/04/20 07:22:02;;;;;;;7.77;3.50;;;20.20;42.50;;;;;;5133750;27;20104;-72
2022/04/20 07:24:28;;;;;;;5.97;3.33;;;20.20;42.40;;;;;;5134487;27;20046;-72
2022/04/20 07:26:53;;;;;;;6.97;3.90;;;20.40;42.60;;;;;;5134672;27;20420;-72
2022/04/20 07:29:20;;;;;;;5.70;3.63;;;;;;;;;;5133450;27;20501;-72
2022/04/20 07:31:46;;;;;;;7.63;3.67;;;20.50;40.40;;;;;;5134524;27;20043;-72
2022/04/20 07:34:12;;;;;;;6.60;3.40;;;20.70;40.90;;;;;;5134523;27;20053;-73
2022/04/20 07:36:38;;;;;;;6.33;3.37;;;20.50;40.60;;;;;;5134266;27;20149;-72
2022/04/20 07:39:03;;;;;;;6.90;3.40;;;20.20;40.60;;;;;;5133019;27;20051;-71
2022/04/20 07:41:29;;;;;;;7.43;3.30;;;20.40;41.00;;;;;;5133049;27;20043;-72
2022/04/20 07:43:55;;;;;;;7.60;3.30;;;20.30;40.80;;;;;;5134545;27;20064;-72
2022/04/20 07:46:22;;;;;;;7.13;3.60;;;;;;;;;;5134058;27;20208;-72
2022/04/20 07:48:48;;;;;;;5.73;3.00;;;20.00;40.50;;;;;;5133966;27;20576;-72
2022/04/20 07:51:14;;;;;;;6.03;3.63;;;20.20;41.20;;;;;;5134269;27;20047;-72
2022/04/20 07:53:40;;;;;;;6.33;3.37;;;19.90;41.20;;;;;;5134094;27;20050;-72
2022/04/20 07:56:06;;;;;;;7.10;3.60;;;19.40;42.30;;;;;;5134268;27;20495;-72
2022/04/20 07:58:32;;;;;;;6.90;3.30;;;18.60;43.00;;;;;;5132262;27;20390;-71
2022/04/20 08:00:57;;;;;;;6.63;2.90;;;17.80;43.90;;;;;;5115662;28;20088;-71
2022/04/20 08:03:24;;;;;;;7.00;3.10;;;17.10;52.50;;;;;;5133914;27;20046;-72
2022/04/20 08:05:54;;;;;;;5.67;3.10;;;16.60;44.70;;;;;;5133060;28;20054;-71
2022/04/20 08:08:22;;;;;;;4.77;2.70;;;16.10;44.30;;;;;;5134073;27;20039;-71
2022/04/20 08:10:48;;;;;;;6.90;2.90;;;15.70;44.80;;;;;;5133054;28;20054;-72
2022/04/20 08:15:58;;;;;;;4.03;2.33;;;15.40;45.10;;;;;;5133968;28;20055;-71
2022/04/20 08:18:25;;;;;;;8.50;3.40;;;15.20;44.80;;;;;;5132551;28;20039;-71
2022/04/20 08:20:51;;;;;;;5.37;2.73;;;14.90;45.10;;;;;;5133797;27;20051;-72
2022/04/20 08:23:17;;;;;;;5.23;2.60;;;14.80;45.60;;;;;;5133873;27;20103;-72
2022/04/20 08:25:44;;;;;;;5.83;2.53;;;14.70;45.70;;;;;;5133638;27;20047;-72
2022/04/20 08:28:10;;;;;;;6.00;2.60;;;;;;;;;;5132963;28;20372;-71
2022/04/20 08:30:37;;;;;;;5.80;2.73;;;14.70;45.50;;;;;;5133664;28;20362;-72
2022/04/20 08:33:06;;;;;;;5.10;2.40;;;14.60;46.50;;;;;;5132839;28;20281;-73
2022/04/20 08:35:33;;;;;;;8.13;2.13;;;14.60;45.90;;;;;;5133530;27;20287;-72
2022/04/20 08:37:59;;;;;;;4.07;2.00;;;14.70;45.40;;;;;;5133551;27;20284;-71
2022/04/20 08:40:25;;;;;;;4.03;1.80;;;14.70;45.30;;;;;;5133265;28;20616;-71
2022/04/20 08:42:52;;;;;;;3.77;1.87;;;14.70;44.30;;;;;;5133679;28;20066;-71
2022/04/20 08:45:20;;;;;;;6.47;2.13;;;14.70;44.40;;;;;;5133699;27;20373;-72
2022/04/20 08:47:49;;;;;;;4.33;2.10;;;14.80;44.40;;;;;;5133486;27;20712;-72
2022/04/20 08:50:16;;;;;;;5.77;2.27;;;14.80;45.30;;;;;;5133077;27;20295;-72
2022/04/20 08:52:46;;;;;;;9.13;2.40;;;14.80;45.10;;;;;;5133392;27;20277;-71
2022/04/20 08:55:17;;;;;;;5.90;2.33;;;15.00;45.20;;;;;;5133738;27;20273;-71
2022/04/20 08:57:48;;;;;;;4.93;2.00;;;15.00;43.90;;;;;;5133354;27;20650;-71
2022/04/20 09:00:26;;;;;;;5.00;1.70;;;15.00;43.10;;;;;;5133470;27;20293;-71
2022/04/20 09:03:01;;;;;;;6.17;2.27;;;14.80;43.20;;;;;;5133709;27;20293;-71
2022/04/20 09:05:29;;;;;;;5.90;2.00;;;14.60;43.10;;;;;;5131907;28;20702;-71
2022/04/20 09:07:56;;;;;;;5.60;2.07;;;14.40;43.70;;;;;;5133521;27;20046;-73
2022/04/20 09:10:22;;;;;;;4.53;1.90;;;14.40;43.30;;;;;;5137282;27;20281;-72
2022/04/20 09:13:09;;;;;;;4.80;1.67;;;14.50;42.30;;;;;;5136989;27;20284;-72
2022/04/20 09:15:36;;;;;;;4.10;1.93;;;14.60;42.30;;;;;;5137078;27;20054;-72
2022/04/20 09:18:05;;;;;;;3.60;1.93;;;14.40;42.00;;;;;;5137089;27;20280;-72
2022/04/20 09:20:32;;;;;;;3.97;1.70;;;14.30;42.90;;;;;;5136852;27;20291;-72
2022/04/20 09:23:07;;;;;;;6.07;1.80;;;14.40;42.40;;;;;;5137034;27;20314;-72
2022/04/20 09:25:34;;;;;;;;;;;14.40;42.70;;;;;;5137241;27;20273;-73
2022/04/20 09:28:01;;;;;;;4.77;2.07;;;14.40;42.50;;;;;;5136972;27;19966;-73
2022/04/20 09:30:35;;;;;;;3.67;1.80;;;14.40;43.00;;;;;;5136906;27;20317;-73
2022/04/20 09:33:07;;;;;;;5.53;2.00;;;14.40;42.70;;;;;;5136508;27;20269;-73
2022/04/20 09:35:44;;;;;;;3.53;1.63;;;14.40;42.80;;;;;;5136514;27;20279;-72
2022/04/20 09:38:10;;;;;;;6.27;1.50;;;14.40;41.80;;;;;;5136707;27;20628;-72
2022/04/20 09:40:37;;;;;;;4.03;1.73;;;14.40;42.10;;;;;;5136239;27;20277;-72
2022/04/20 09:43:15;;;;;;;3.03;1.50;;;14.40;41.20;;;;;;5136491;27;20086;-72
2022/04/20 09:45:41;;;;;;;5.77;1.83;;;14.40;42.10;;;;;;5135430;27;20291;-72
2022/04/20 09:51:07;;;;;;;5.13;1.80;;;14.50;41.40;;;;;;5136567;27;20348;-72
2022/04/20 09:53:33;;;;;;;4.53;1.93;;;14.60;42.00;;;;;;5134957;27;20815;-72
2022/04/20 09:56:23;;;;;;;4.50;1.80;;;14.70;42.20;;;;;;5136437;27;20313;-72
2022/04/20 09:59:04;;;;;;;3.33;1.67;;;14.80;42.30;;;;;;5136147;27;20051;-72
2022/04/20 10:01:32;;;;;;;3.53;1.60;;;14.80;41.70;;;;;;5136209;27;20284;-72
2022/04/20 10:03:59;;;;;;;3.20;1.50;;;14.90;42.10;;;;;;5136228;27;20335;-72
2022/04/20 10:06:25;;;;;;;4.67;1.60;;;14.90;42.00;;;;;;5136111;27;20277;-72
2022/04/20 10:08:51;;;;;;;3.50;1.70;;;15.00;42.00;;;;;;5136175;27;20620;-72
2022/04/20 10:11:19;;;;;;;4.97;1.70;;;14.90;41.70;;;;;;5135088;27;20273;-73
2022/04/20 10:16:05;;;;;;;4.07;1.83;;;14.90;42.40;;;;;;5135849;27;20039;-72
2022/04/20 10:16:33;;;;;;;3.67;1.80;;;14.90;42.30;;;;;;5135910;27;20356;-72
2022/04/20 10:18:59;;;;;;;5.17;1.90;;;14.90;42.80;;;;;;5136121;27;20357;-72
2022/04/20 10:21:27;;;;;;;4.57;1.70;;;15.00;41.90;;;;;;5134134;27;20273;-72
2022/04/20 10:24:04;;;;;;;3.63;1.60;;;15.00;42.70;;;;;;5134646;27;20287;-72
2022/04/20 10:26:29;;;;;;;4.23;1.67;;;15.10;43.10;;;;;;5135941;27;20276;-72
2022/04/20 10:29:26;;;;;;;4.37;1.77;;;15.10;42.20;;;;;;5134352;27;20329;-72
2022/04/20 10:32:06;;;;;;;5.70;2.03;;;15.10;41.80;;;;;;5134355;27;20055;-72
2022/04/20 10:34:33;;;;;;;4.57;1.80;;;15.10;40.40;;;;;;5135883;27;20632;-72
2022/04/20 10:37:02;;;;;;;7.43;1.73;;;15.10;40.40;;;;;;5135379;27;20273;-72
2022/04/20 10:39:33;;;;;;;3.57;1.87;;;14.90;41.10;;;;;;5134950;27;20340;-72
2022/04/20 10:42:11;;;;;;;5.33;1.53;;;15.00;41.60;;;;;;5135338;27;20272;-72
2022/04/20 10:44:54;;;;;;;3.40;1.40;;;15.00;41.30;;;;;;5135303;27;20284;-72
2022/04/20 10:47:23;;;;;;;4.90;1.60;;;15.10;41.50;;;;;;5135351;27;20277;-72
2022/04/20 10:49:53;;;;;;;5.67;1.50;;;15.20;42.10;;;;;;5135214;27;20273;-72
2022/04/20 10:52:29;;;;;;;3.40;1.40;;;15.30;41.20;;;;;;5135296;27;20318;-72
2022/04/20 10:54:56;;;;;;;3.83;1.80;;;15.50;40.50;;;;;;5134778;27;20752;-72
2022/04/20 10:57:42;;;;;;;3.50;1.60;;;15.40;40.30;;;;;;5135211;27;20777;-72
2022/04/20 11:00:20;;;;;;;3.03;1.40;;;15.40;39.70;;;;;;5135067;27;20293;-73
2022/04/20 11:03:12;;;;;;;3.77;1.30;;;15.30;40.20;;;;;;5134848;27;20284;-72
2022/04/20 11:05:55;;;;;;;3.10;1.23;;;15.40;39.50;;;;;;5134386;27;20276;-72
2022/04/20 11:08:24;;;;;;;4.17;1.17;;;15.40;38.80;;;;;;5135036;27;20281;-72
2022/04/20 11:18:38;;;;;;;3.60;1.40;;;15.30;39.60;;;;;;5134709;27;20359;-72
2022/04/20 11:19:06;;;;;;;3.77;1.50;;;15.30;39.60;;;;;;5134865;27;20387;-72
2022/04/20 11:21:32;;;;;;;3.30;1.60;;;15.40;40.30;;;;;;5134870;27;20281;-72
2022/04/20 11:24:08;;;;;;;4.27;1.67;;;15.40;40.00;;;;;;5134515;27;20268;-72
2022/04/20 11:26:35;;;;;;;4.70;1.70;;;15.50;39.60;;;;;;5134597;27;20273;-72
2022/04/20 11:29:08;;;;;;;3.47;1.83;;;15.40;39.90;;;;;;5134422;27;20289;-73
2022/04/20 11:31:42;;;;;;;3.70;1.47;;;15.30;40.00;;;;;;5133695;27;20788;-72
2022/04/20 11:34:08;;;;;;;3.23;1.60;;;15.50;40.60;;;;;;5134676;27;20277;-73
2022/04/20 11:36:38;;;;;;;3.97;1.50;;;15.50;39.70;;;;;;5135108;27;20384;-73
2022/04/20 11:39:04;;;;;;;3.30;1.53;;;15.50;39.70;;;;;;5134073;27;20387;-73
2022/04/20 11:41:29;;;;;;;4.67;1.90;;;15.40;40.20;;;;;;5133957;27;20365;-73
2022/04/20 11:43:55;;;;;;;3.70;1.67;;;15.50;39.80;;;;;;5134090;27;20436;-73
2022/04/20 11:46:22;;;;;;;4.33;1.80;;;15.50;40.40;;;;;;5133131;27;20042;-72
2022/04/20 11:48:55;;;;;;;3.17;1.50;;;15.50;40.00;;;;;;5134071;27;20489;-72
2022/04/20 11:51:29;;;;;;;3.97;1.50;;;15.70;67.10;;;;;;5134442;27;20277;-72
2022/04/20 11:53:55;;;;;;;3.57;1.60;;;15.70;64.50;;;;;;5132944;27;20367;-72
2022/04/20 11:56:38;;;;;;;3.47;1.67;;;15.70;62.50;;;;;;5134211;27;20324;-73
2022/04/20 11:59:09;;;;;;;4.27;1.40;;;15.50;61.90;;;;;;5133851;27;20299;-72
2022/04/20 12:01:36;;;;;;;2.40;1.27;;;15.50;61.70;;;;;;5134304;27;20305;-72
2022/04/20 12:04:12;;;;;;;3.20;1.23;;;;;;;;;;5133968;27;20277;-72
2022/04/20 12:06:44;;;;;;;2.53;1.30;;;15.70;72.50;;;;;;5134265;27;20281;-72
2022/04/20 12:09:10;;;;;;;5.03;1.20;;;15.80;47.90;;;;;;5134319;27;20748;-72
2022/04/20 12:11:35;;;;;;;5.27;1.47;;;15.70;48.10;;;;;;5134062;27;20325;-72
2022/04/20 12:14:01;;;;;;;3.80;1.33;;;15.70;50.40;;;;;;5133831;27;20126;-72
2022/04/20 12:16:27;;;;;;;2.70;1.40;;;15.60;53.80;;;;;;5133937;28;20079;-72
2022/04/20 12:18:53;;;;;;;2.67;1.20;;;15.70;39.00;;;;;;5133632;27;20079;-73
2022/04/20 12:21:44;;;;;;;3.10;1.40;;;15.80;39.20;;;;;;5133888;28;20050;-73
2022/04/20 12:24:12;;;;;;;4.07;1.20;;;;;;;;;;5134097;27;20043;-72
2022/04/20 12:26:43;;;;;;;2.80;1.20;;;;;;;;;;5133747;28;20280;-72
2022/04/20 12:29:09;;;;;;;3.50;1.00;;;16.00;37.10;;;;;;5133561;28;20269;-72
2022/04/20 12:31:41;;;;;;;3.10;1.20;;;15.90;37.90;;;;;;5132866;28;20799;-72
2022/04/20 12:34:08;;;;;;;2.93;1.20;;;15.90;38.20;;;;;;5133693;27;20658;-72
2022/04/20 12:36:58;;;;;;;2.47;1.30;;;15.90;39.00;;;;;;5133786;27;20445;-72
2022/04/20 12:39:31;;;;;;;3.50;1.10;;;15.90;39.30;;;;;;5133358;27;20334;-72
2022/04/20 12:42:04;;;;;;;3.73;1.10;;;15.90;39.70;;;;;;5133664;27;20305;-72
2022/04/20 12:44:35;;;;;;;4.73;1.30;;;16.00;39.90;;;;;;5136620;27;20288;-72
2022/04/20 12:47:02;;;;;;;2.47;1.23;;;16.10;40.50;;;;;;5137517;27;20289;-72
2022/04/20 12:49:28;;;;;;;3.57;1.30;;;16.00;39.90;;;;;;5137634;27;20284;-72
2022/04/20 12:52:08;;;;;;;2.27;1.20;;;16.10;40.00;;;;;;5137252;27;20624;-72
2022/04/20 12:54:35;;;;;;;4.33;1.33;;;16.20;41.00;;;;;;5137879;27;20281;-72
2022/04/20 13:02:30;;;;;;;2.50;1.10;;;16.20;41.00;;;;;;5137489;27;19973;-72
2022/04/20 13:04:56;;;;;;;2.67;1.13;;;16.30;40.50;;;;;;5137242;27;20276;-72
2022/04/20 13:07:22;;;;;;;2.43;0.90;;;16.30;40.60;;;;;;5137419;27;20054;-72
2022/04/20 13:09:47;;;;;;;3.57;1.10;;;16.20;41.20;;;;;;5137444;27;20288;-72
2022/04/20 13:12:13;;;;;;;4.73;1.00;;;16.30;40.20;;;;;;5135886;27;20051;-72
2022/04/20 13:14:41;;;;;;;2.87;1.17;;;16.40;40.50;;;;;;5137254;27;20179;-72
2022/04/20 13:17:10;;;;;;;5.27;1.17;;;16.40;39.80;;;;;;5137042;27;20047;-72
2022/04/20 13:19:38;;;;;;;3.40;0.97;;;16.40;40.30;;;;;;5137105;27;20492;-72
2022/04/20 13:22:05;;;;;;;2.73;1.00;;;16.50;40.00;;;;;;5136757;27;20771;-72
2022/04/20 13:28:15;;;;;;;2.93;1.20;;;16.50;39.80;;;;;;5136854;27;20284;-72
2022/04/20 13:30:10;;;;;;;3.28;1.13;;;16.50;40.60;;;;;;5122666;27;20284;-72
2022/04/20 13:32:36;;;;;;;2.80;1.30;;;16.50;40.90;;;;;;5137086;27;20479;-72
2022/04/20 13:35:01;;;;;;;4.67;1.10;;;16.40;40.90;;;;;;5135706;27;20062;-72